sensor_id;sensor_type;location;lat;lon;timestamp;pressure;altitude;pressure_sealevel;temperature;humidity
62946;BME280;52164;52.212;-1.010;2022-12-19T00:01:05;99534.16;;;7.90;94.65
62946;BME280;52164;52.212;-1.010;2022-12-19T00:03:33;99533.08;;;7.93;94.71
62946;BME280;52164;52.212;-1.010;2022-12-19T00:06:02;99522.23;;;7.97;94.95
62946;BME280;52164;52.212;-1.010;2022-12-19T00:08:28;99516.89;;;7.99;95.02
62946;BME280;52164;52.212;-1.010;2022-12-19T00:10:54;99507.27;;;8.01;94.84
62946;BME280;52164;52.212;-1.010;2022-12-19T00:13:20;99502.29;;;8.04;94.76
62946;BME280;52164;52.212;-1.010;2022-12-19T00:15:46;99500.84;;;8.06;94.94
62946;BME280;52164;52.212;-1.010;2022-12-19T00:18:11;99498.70;;;8.09;94.98
62946;BME280;52164;52.212;-1.010;2022-12-19T00:20:36;99492.81;;;8.12;94.79
62946;BME280;52164;52.212;-1.010;2022-12-19T00:23:01;99498.30;;;8.15;95.23
62946;BME280;52164;52.212;-1.010;2022-12-19T00:25:26;99491.00;;;8.18;94.99
62946;BME280;52164;52.212;-1.010;2022-12-19T00:27:52;99496.67;;;8.20;95.00
62946;BME280;52164;52.212;-1.010;2022-12-19T00:30:17;99489.71;;;8.23;94.88
62946;BME280;52164;52.212;-1.010;2022-12-19T00:32:43;99488.27;;;8.26;95.14
62946;BME280;52164;52.212;-1.010;2022-12-19T00:35:09;99491.45;;;8.28;94.68
62946;BME280;52164;52.212;-1.010;2022-12-19T00:37:34;99490.19;;;8.30;94.86
62946;BME280;52164;52.212;-1.010;2022-12-19T00:39:59;99493.05;;;8.32;94.93
62946;BME280;52164;52.212;-1.010;2022-12-19T00:42:27;99485.38;;;8.34;95.02
62946;BME280;52164;52.212;-1.010;2022-12-19T00:44:52;99488.73;;;8.37;95.06
62946;BME280;52164;52.212;-1.010;2022-12-19T00:47:18;99486.77;;;8.38;95.25
62946;BME280;52164;52.212;-1.010;2022-12-19T00:49:43;99487.27;;;8.41;95.19
62946;BME280;52164;52.212;-1.010;2022-12-19T00:52:08;99485.49;;;8.44;94.77
62946;BME280;52164;52.212;-1.010;2022-12-19T00:54:34;99476.06;;;8.46;94.80
62946;BME280;52164;52.212;-1.010;2022-12-19T00:56:59;99467.17;;;8.48;95.26
62946;BME280;52164;52.212;-1.010;2022-12-19T00:59:24;99468.94;;;8.49;94.99
62946;BME280;52164;52.212;-1.010;2022-12-19T01:01:49;99461.98;;;8.52;94.95
62946;BME280;52164;52.212;-1.010;2022-12-19T01:04:15;99455.55;;;8.55;95.03
62946;BME280;52164;52.212;-1.010;2022-12-19T01:06:40;99460.86;;;8.57;95.08
62946;BME280;52164;52.212;-1.010;2022-12-19T01:09:06;99463.33;;;8.60;94.95
62946;BME280;52164;52.212;-1.010;2022-12-19T01:11:31;99459.74;;;8.63;94.95
62946;BME280;52164;52.212;-1.010;2022-12-19T01:14:17;99447.63;;;8.65;95.04
62946;BME280;52164;52.212;-1.010;2022-12-19T01:16:42;99441.91;;;8.68;94.82
62946;BME280;52164;52.212;-1.010;2022-12-19T01:19:07;99444.73;;;8.70;95.15
62946;BME280;52164;52.212;-1.010;2022-12-19T01:21:33;99444.00;;;8.73;94.85
62946;BME280;52164;52.212;-1.010;2022-12-19T01:23:58;99441.83;;;8.77;95.10
62946;BME280;52164;52.212;-1.010;2022-12-19T01:26:25;99441.27;;;8.78;94.94
62946;BME280;52164;52.212;-1.010;2022-12-19T01:28:50;99443.56;;;8.80;95.20
62946;BME280;52164;52.212;-1.010;2022-12-19T01:31:17;99446.58;;;8.82;94.93
62946;BME280;52164;52.212;-1.010;2022-12-19T01:33:43;99447.10;;;8.84;94.88
62946;BME280;52164;52.212;-1.010;2022-12-19T01:36:08;99445.10;;;8.87;94.83
62946;BME280;52164;52.212;-1.010;2022-12-19T01:38:34;99441.70;;;8.90;95.01
62946;BME280;52164;52.212;-1.010;2022-12-19T01:40:59;99439.02;;;8.91;95.07
62946;BME280;52164;52.212;-1.010;2022-12-19T01:43:27;99444.16;;;8.92;95.07
62946;BME280;52164;52.212;-1.010;2022-12-19T01:45:53;99443.05;;;8.96;95.23
62946;BME280;52164;52.212;-1.010;2022-12-19T01:48:21;99447.13;;;8.99;95.18
62946;BME280;52164;52.212;-1.010;2022-12-19T01:50:50;99451.90;;;9.02;95.19
62946;BME280;52164;52.212;-1.010;2022-12-19T01:53:17;99449.75;;;9.03;95.41
62946;BME280;52164;52.212;-1.010;2022-12-19T01:55:43;99453.98;;;9.06;95.21
62946;BME280;52164;52.212;-1.010;2022-12-19T01:58:09;99456.27;;;9.09;95.12
62946;BME280;52164;52.212;-1.010;2022-12-19T02:00:35;99450.72;;;9.11;95.17
62946;BME280;52164;52.212;-1.010;2022-12-19T02:05:27;99442.09;;;9.19;95.38
62946;BME280;52164;52.212;-1.010;2022-12-19T02:07:52;99448.45;;;9.23;95.49
62946;BME280;52164;52.212;-1.010;2022-12-19T02:10:18;99439.66;;;9.28;95.69
62946;BME280;52164;52.212;-1.010;2022-12-19T02:12:43;99425.21;;;9.31;95.66
62946;BME280;52164;52.212;-1.010;2022-12-19T02:15:09;99441.92;;;9.34;95.64
62946;BME280;52164;52.212;-1.010;2022-12-19T02:20:42;99457.15;;;9.40;95.48
62946;BME280;52164;52.212;-1.010;2022-12-19T02:28:44;99460.09;;;9.48;95.69
62946;BME280;52164;52.212;-1.010;2022-12-19T02:33:44;99449.84;;;9.55;95.79
62946;BME280;52164;52.212;-1.010;2022-12-19T02:36:17;99443.58;;;9.58;95.83
62946;BME280;52164;52.212;-1.010;2022-12-19T02:38:53;99442.47;;;9.61;95.88
62946;BME280;52164;52.212;-1.010;2022-12-19T02:41:22;99439.77;;;9.63;95.91
62946;BME280;52164;52.212;-1.010;2022-12-19T02:43:52;99441.52;;;9.65;95.78
62946;BME280;52164;52.212;-1.010;2022-12-19T02:46:19;99443.97;;;9.67;95.71
62946;BME280;52164;52.212;-1.010;2022-12-19T02:48:46;99453.39;;;9.69;95.77
62946;BME280;52164;52.212;-1.010;2022-12-19T02:51:12;99451.94;;;9.72;95.86
62946;BME280;52164;52.212;-1.010;2022-12-19T02:53:38;99456.55;;;9.73;95.80
62946;BME280;52164;52.212;-1.010;2022-12-19T02:56:10;99454.92;;;9.76;95.88
62946;BME280;52164;52.212;-1.010;2022-12-19T02:58:42;99452.40;;;9.77;95.73
62946;BME280;52164;52.212;-1.010;2022-12-19T03:01:29;99451.29;;;9.80;95.82
62946;BME280;52164;52.212;-1.010;2022-12-19T03:04:03;99444.48;;;9.82;95.93
62946;BME280;52164;52.212;-1.010;2022-12-19T03:06:35;99449.27;;;9.85;95.96
62946;BME280;52164;52.212;-1.010;2022-12-19T03:09:14;99446.02;;;9.88;95.93
62946;BME280;52164;52.212;-1.010;2022-12-19T03:11:42;99449.70;;;9.91;95.95
62946;BME280;52164;52.212;-1.010;2022-12-19T03:14:11;99449.52;;;9.93;95.88
62946;BME280;52164;52.212;-1.010;2022-12-19T03:16:38;99443.22;;;9.96;95.88
62946;BME280;52164;52.212;-1.010;2022-12-19T03:19:03;99447.29;;;9.99;95.99
62946;BME280;52164;52.212;-1.010;2022-12-19T03:21:34;99439.95;;;10.01;96.08
62946;BME280;52164;52.212;-1.010;2022-12-19T03:24:01;99432.08;;;10.03;95.89
62946;BME280;52164;52.212;-1.010;2022-12-19T03:26:28;99442.77;;;10.03;95.80
62946;BME280;52164;52.212;-1.010;2022-12-19T03:28:58;99440.93;;;10.06;95.80
62946;BME280;52164;52.212;-1.010;2022-12-19T03:31:27;99437.67;;;10.10;95.91
62946;BME280;52164;52.212;-1.010;2022-12-19T03:33:54;99443.68;;;10.13;95.77
62946;BME280;52164;52.212;-1.010;2022-12-19T03:36:21;99447.91;;;10.17;95.83
62946;BME280;52164;52.212;-1.010;2022-12-19T03:38:49;99453.55;;;10.20;95.67
62946;BME280;52164;52.212;-1.010;2022-12-19T03:41:15;99453.34;;;10.23;95.53
62946;BME280;52164;52.212;-1.010;2022-12-19T03:44:03;99455.59;;;10.27;95.64
62946;BME280;52164;52.212;-1.010;2022-12-19T03:46:30;99453.60;;;10.29;95.43
62946;BME280;52164;52.212;-1.010;2022-12-19T03:48:59;99454.81;;;10.32;95.39
62946;BME280;52164;52.212;-1.010;2022-12-19T03:52:33;99449.98;;;10.34;95.38
62946;BME280;52164;52.212;-1.010;2022-12-19T03:54:43;99454.24;;;10.35;95.23
62946;BME280;52164;52.212;-1.010;2022-12-19T03:57:05;99451.04;;;10.35;95.27
62946;BME280;52164;52.212;-1.010;2022-12-19T04:01:57;99451.52;;;10.38;95.40
62946;BME280;52164;52.212;-1.010;2022-12-19T04:04:23;99451.86;;;10.39;95.45
62946;BME280;52164;52.212;-1.010;2022-12-19T04:06:49;99450.78;;;10.41;95.24
62946;BME280;52164;52.212;-1.010;2022-12-19T04:09:15;99447.20;;;10.41;95.11
62946;BME280;52164;52.212;-1.010;2022-12-19T04:11:43;99446.66;;;10.42;95.10
62946;BME280;52164;52.212;-1.010;2022-12-19T04:14:14;99451.61;;;10.44;95.17
62946;BME280;52164;52.212;-1.010;2022-12-19T04:16:53;99444.62;;;10.47;95.19
62946;BME280;52164;52.212;-1.010;2022-12-19T04:19:23;99444.95;;;10.48;95.10
62946;BME280;52164;52.212;-1.010;2022-12-19T04:21:55;99435.10;;;10.50;95.31
62946;BME280;52164;52.212;-1.010;2022-12-19T04:24:25;99435.59;;;10.53;95.37
62946;BME280;52164;52.212;-1.010;2022-12-19T04:26:51;99451.95;;;10.56;95.47
62946;BME280;52164;52.212;-1.010;2022-12-19T04:29:18;99456.17;;;10.59;95.43
62946;BME280;52164;52.212;-1.010;2022-12-19T04:31:43;99454.52;;;10.63;95.65
62946;BME280;52164;52.212;-1.010;2022-12-19T04:34:11;99447.90;;;10.64;95.48
62946;BME280;52164;52.212;-1.010;2022-12-19T04:36:36;99451.09;;;10.64;95.32
62946;BME280;52164;52.212;-1.010;2022-12-19T04:39:02;99450.73;;;10.64;95.47
62946;BME280;52164;52.212;-1.010;2022-12-19T04:41:27;99455.36;;;10.65;95.22
62946;BME280;52164;52.212;-1.010;2022-12-19T04:43:52;99445.91;;;10.65;95.46
62946;BME280;52164;52.212;-1.010;2022-12-19T04:46:18;99451.80;;;10.65;95.33
62946;BME280;52164;52.212;-1.010;2022-12-19T04:48:43;99448.25;;;10.64;95.28
62946;BME280;52164;52.212;-1.010;2022-12-19T04:51:08;99457.19;;;10.63;95.12
62946;BME280;52164;52.212;-1.010;2022-12-19T04:53:34;99463.95;;;10.64;95.20
62946;BME280;52164;52.212;-1.010;2022-12-19T04:56:00;99447.50;;;10.65;95.30
62946;BME280;52164;52.212;-1.010;2022-12-19T04:58:25;99455.71;;;10.65;95.17
62946;BME280;52164;52.212;-1.010;2022-12-19T05:00:51;99453.56;;;10.66;95.28
62946;BME280;52164;52.212;-1.010;2022-12-19T05:03:16;99453.35;;;10.67;95.02
62946;BME280;52164;52.212;-1.010;2022-12-19T05:05:42;99459.23;;;10.69;95.27
62946;BME280;52164;52.212;-1.010;2022-12-19T05:08:07;99456.19;;;10.69;95.02
62946;BME280;52164;52.212;-1.010;2022-12-19T05:10:32;99451.90;;;10.70;95.25
62946;BME280;52164;52.212;-1.010;2022-12-19T05:12:58;99457.06;;;10.70;95.13
62946;BME280;52164;52.212;-1.010;2022-12-19T05:15:23;99460.80;;;10.71;95.23
62946;BME280;52164;52.212;-1.010;2022-12-19T05:17:48;99457.79;;;10.70;95.06
62946;BME280;52164;52.212;-1.010;2022-12-19T05:20:14;99458.81;;;10.71;95.07
62946;BME280;52164;52.212;-1.010;2022-12-19T05:22:39;99457.19;;;10.72;95.03
62946;BME280;52164;52.212;-1.010;2022-12-19T05:25:04;99457.73;;;10.73;94.99
62946;BME280;52164;52.212;-1.010;2022-12-19T05:27:30;99451.62;;;10.75;94.88
62946;BME280;52164;52.212;-1.010;2022-12-19T05:29:55;99448.56;;;10.76;94.72
62946;BME280;52164;52.212;-1.010;2022-12-19T05:32:21;99441.96;;;10.76;94.70
62946;BME280;52164;52.212;-1.010;2022-12-19T05:34:46;99439.30;;;10.76;94.62
62946;BME280;52164;52.212;-1.010;2022-12-19T05:37:11;99436.42;;;10.77;94.83
62946;BME280;52164;52.212;-1.010;2022-12-19T05:39:37;99435.37;;;10.76;94.56
62946;BME280;52164;52.212;-1.010;2022-12-19T05:42:02;99427.88;;;10.76;94.72
62946;BME280;52164;52.212;-1.010;2022-12-19T05:44:27;99415.56;;;10.75;94.60
62946;BME280;52164;52.212;-1.010;2022-12-19T05:46:52;99405.76;;;10.75;94.44
62946;BME280;52164;52.212;-1.010;2022-12-19T05:49:18;99419.34;;;10.74;94.45
62946;BME280;52164;52.212;-1.010;2022-12-19T05:51:44;99421.83;;;10.74;94.43
62946;BME280;52164;52.212;-1.010;2022-12-19T05:54:09;99428.46;;;10.73;94.47
62946;BME280;52164;52.212;-1.010;2022-12-19T05:56:34;99426.14;;;10.73;94.42
62946;BME280;52164;52.212;-1.010;2022-12-19T05:58:59;99430.61;;;10.72;94.32
62946;BME280;52164;52.212;-1.010;2022-12-19T06:01:25;99437.42;;;10.71;94.42
62946;BME280;52164;52.212;-1.010;2022-12-19T06:03:51;99436.01;;;10.70;94.36
62946;BME280;52164;52.212;-1.010;2022-12-19T06:06:18;99443.84;;;10.71;94.36
62946;BME280;52164;52.212;-1.010;2022-12-19T06:08:44;99441.31;;;10.73;94.38
62946;BME280;52164;52.212;-1.010;2022-12-19T06:11:10;99446.66;;;10.73;94.33
62946;BME280;52164;52.212;-1.010;2022-12-19T06:13:35;99445.39;;;10.73;94.39
62946;BME280;52164;52.212;-1.010;2022-12-19T06:18:29;99428.77;;;10.74;94.41
62946;BME280;52164;52.212;-1.010;2022-12-19T06:20:56;99427.34;;;10.74;94.34
62946;BME280;52164;52.212;-1.010;2022-12-19T06:23:21;99421.28;;;10.75;94.40
62946;BME280;52164;52.212;-1.010;2022-12-19T06:25:47;99419.66;;;10.75;94.24
62946;BME280;52164;52.212;-1.010;2022-12-19T06:28:12;99416.45;;;10.75;94.27
62946;BME280;52164;52.212;-1.010;2022-12-19T06:30:38;99417.89;;;10.75;94.17
62946;BME280;52164;52.212;-1.010;2022-12-19T06:33:03;99419.84;;;10.76;94.14
62946;BME280;52164;52.212;-1.010;2022-12-19T06:35:28;99415.73;;;10.76;94.06
62946;BME280;52164;52.212;-1.010;2022-12-19T06:37:54;99426.08;;;10.76;94.20
62946;BME280;52164;52.212;-1.010;2022-12-19T06:40:19;99427.48;;;10.78;94.10
62946;BME280;52164;52.212;-1.010;2022-12-19T06:43:04;99415.52;;;10.78;94.01
62946;BME280;52164;52.212;-1.010;2022-12-19T06:45:29;99426.77;;;10.78;94.10
62946;BME280;52164;52.212;-1.010;2022-12-19T06:47:55;99423.89;;;10.79;94.00
62946;BME280;52164;52.212;-1.010;2022-12-19T06:50:20;99413.16;;;10.80;94.24
62946;BME280;52164;52.212;-1.010;2022-12-19T06:52:45;99409.77;;;10.80;94.22
62946;BME280;52164;52.212;-1.010;2022-12-19T06:55:11;99406.89;;;10.81;94.06
62946;BME280;52164;52.212;-1.010;2022-12-19T06:57:36;99404.92;;;10.81;94.15
62946;BME280;52164;52.212;-1.010;2022-12-19T07:00:09;99415.28;;;10.81;94.04
62946;BME280;52164;52.212;-1.010;2022-12-19T07:02:35;99414.38;;;10.82;94.04
62946;BME280;52164;52.212;-1.010;2022-12-19T07:05:01;99420.25;;;10.83;94.26
62946;BME280;52164;52.212;-1.010;2022-12-19T07:07:28;99419.15;;;10.84;94.01
62946;BME280;52164;52.212;-1.010;2022-12-19T07:09:53;99425.20;;;10.86;93.89
62946;BME280;52164;52.212;-1.010;2022-12-19T07:12:19;99429.80;;;10.87;93.84
62946;BME280;52164;52.212;-1.010;2022-12-19T07:14:44;99431.36;;;10.90;94.15
62946;BME280;52164;52.212;-1.010;2022-12-19T07:17:09;99433.11;;;10.91;93.96
62946;BME280;52164;52.212;-1.010;2022-12-19T07:19:38;99431.83;;;10.93;93.80
62946;BME280;52164;52.212;-1.010;2022-12-19T07:22:04;99427.69;;;10.94;93.89
62946;BME280;52164;52.212;-1.010;2022-12-19T07:24:30;99433.02;;;10.97;93.94
62946;BME280;52164;52.212;-1.010;2022-12-19T07:26:56;99433.85;;;11.00;94.00
62946;BME280;52164;52.212;-1.010;2022-12-19T07:29:21;99432.17;;;11.03;93.88
62946;BME280;52164;52.212;-1.010;2022-12-19T07:31:46;99430.17;;;11.05;94.03
62946;BME280;52164;52.212;-1.010;2022-12-19T07:34:12;99420.48;;;11.07;93.90
62946;BME280;52164;52.212;-1.010;2022-12-19T07:36:37;99426.02;;;11.07;93.80
62946;BME280;52164;52.212;-1.010;2022-12-19T07:39:03;99428.13;;;11.09;93.91
62946;BME280;52164;52.212;-1.010;2022-12-19T07:41:28;99412.92;;;11.12;93.65
62946;BME280;52164;52.212;-1.010;2022-12-19T07:43:53;99420.57;;;11.13;93.54
62946;BME280;52164;52.212;-1.010;2022-12-19T07:46:18;99424.30;;;11.14;93.60
62946;BME280;52164;52.212;-1.010;2022-12-19T07:48:44;99424.81;;;11.15;93.47
62946;BME280;52164;52.212;-1.010;2022-12-19T07:51:09;99425.69;;;11.16;93.52
62946;BME280;52164;52.212;-1.010;2022-12-19T07:53:34;99427.10;;;11.17;93.57
62946;BME280;52164;52.212;-1.010;2022-12-19T07:55:59;99425.99;;;11.18;93.45
62946;BME280;52164;52.212;-1.010;2022-12-19T07:58:25;99431.16;;;11.19;93.40
62946;BME280;52164;52.212;-1.010;2022-12-19T08:00:58;99433.27;;;11.21;93.19
62946;BME280;52164;52.212;-1.010;2022-12-19T08:03:25;99435.21;;;11.22;93.23
62946;BME280;52164;52.212;-1.010;2022-12-19T08:05:50;99427.15;;;11.23;93.17
62946;BME280;52164;52.212;-1.010;2022-12-19T08:08:16;99430.55;;;11.23;93.17
62946;BME280;52164;52.212;-1.010;2022-12-19T08:10:41;99429.84;;;11.23;93.03
62946;BME280;52164;52.212;-1.010;2022-12-19T08:13:07;99428.05;;;11.23;93.01
62946;BME280;52164;52.212;-1.010;2022-12-19T08:15:33;99425.90;;;11.23;92.99
62946;BME280;52164;52.212;-1.010;2022-12-19T08:17:58;99430.20;;;11.22;93.03
62946;BME280;52164;52.212;-1.010;2022-12-19T08:20:26;99428.77;;;11.22;93.01
62946;BME280;52164;52.212;-1.010;2022-12-19T08:22:52;99423.26;;;11.22;92.89
62946;BME280;52164;52.212;-1.010;2022-12-19T08:25:17;99419.86;;;11.21;92.97
62946;BME280;52164;52.212;-1.010;2022-12-19T08:27:43;99429.15;;;11.21;92.71
62946;BME280;52164;52.212;-1.010;2022-12-19T08:30:08;99431.10;;;11.22;92.84
62946;BME280;52164;52.212;-1.010;2022-12-19T08:32:33;99424.66;;;11.22;92.71
62946;BME280;52164;52.212;-1.010;2022-12-19T08:34:59;99425.20;;;11.22;92.48
62946;BME280;52164;52.212;-1.010;2022-12-19T08:37:28;99427.34;;;11.23;92.70
62946;BME280;52164;52.212;-1.010;2022-12-19T08:39:53;99434.08;;;11.25;92.64
62946;BME280;52164;52.212;-1.010;2022-12-19T08:42:18;99430.66;;;11.27;92.58
62946;BME280;52164;52.212;-1.010;2022-12-19T08:44:43;99420.26;;;11.28;92.49
62946;BME280;52164;52.212;-1.010;2022-12-19T08:47:09;99408.83;;;11.28;92.67
62946;BME280;52164;52.212;-1.010;2022-12-19T08:49:34;99421.14;;;11.29;92.26
62946;BME280;52164;52.212;-1.010;2022-12-19T08:51:59;99429.70;;;11.30;92.27
62946;BME280;52164;52.212;-1.010;2022-12-19T08:54:25;99428.98;;;11.31;92.25
62946;BME280;52164;52.212;-1.010;2022-12-19T08:56:51;99430.04;;;11.31;92.30
62946;BME280;52164;52.212;-1.010;2022-12-19T08:59:16;99424.71;;;11.29;92.20
62946;BME280;52164;52.212;-1.010;2022-12-19T09:01:41;99420.24;;;11.29;92.35
62946;BME280;52164;52.212;-1.010;2022-12-19T09:04:07;99419.88;;;11.29;92.14
62946;BME280;52164;52.212;-1.010;2022-12-19T09:06:32;99410.59;;;11.30;92.27
62946;BME280;52164;52.212;-1.010;2022-12-19T09:08:57;99410.41;;;11.30;92.35
62946;BME280;52164;52.212;-1.010;2022-12-19T09:11:23;99416.98;;;11.32;92.25
62946;BME280;52164;52.212;-1.010;2022-12-19T09:13:48;99417.13;;;11.33;92.18
62946;BME280;52164;52.212;-1.010;2022-12-19T09:16:15;99402.99;;;11.34;92.11
62946;BME280;52164;52.212;-1.010;2022-12-19T09:18:42;99412.98;;;11.34;92.24
62946;BME280;52164;52.212;-1.010;2022-12-19T09:21:11;99413.13;;;11.37;92.18
62946;BME280;52164;52.212;-1.010;2022-12-19T09:23:41;99408.44;;;11.39;91.92
62946;BME280;52164;52.212;-1.010;2022-12-19T09:26:07;99407.70;;;11.40;91.96
62946;BME280;52164;52.212;-1.010;2022-12-19T09:28:33;99400.32;;;11.42;91.82
62946;BME280;52164;52.212;-1.010;2022-12-19T09:31:01;99394.20;;;11.44;91.78
62946;BME280;52164;52.212;-1.010;2022-12-19T09:33:27;99402.20;;;11.46;91.65
62946;BME280;52164;52.212;-1.010;2022-12-19T09:35:53;99400.71;;;11.49;91.53
62946;BME280;52164;52.212;-1.010;2022-12-19T09:38:19;99395.64;;;11.52;91.47
62946;BME280;52164;52.212;-1.010;2022-12-19T09:40:51;99388.10;;;11.54;91.39
62946;BME280;52164;52.212;-1.010;2022-12-19T09:43:23;99394.15;;;11.55;91.44
62946;BME280;52164;52.212;-1.010;2022-12-19T09:48:18;99413.55;;;11.58;91.20
62946;BME280;52164;52.212;-1.010;2022-12-19T09:52:56;99414.43;;;11.59;91.16
62946;BME280;52164;52.212;-1.010;2022-12-19T09:55:55;99430.40;;;11.65;90.93
62946;BME280;52164;52.212;-1.010;2022-12-19T09:58:55;99434.67;;;11.66;91.03
62946;BME280;52164;52.212;-1.010;2022-12-19T10:01:12;99427.66;;;11.68;90.81
62946;BME280;52164;52.212;-1.010;2022-12-19T10:03:40;99415.98;;;11.71;90.90
62946;BME280;52164;52.212;-1.010;2022-12-19T10:06:23;99408.55;;;11.75;90.74
62946;BME280;52164;52.212;-1.010;2022-12-19T10:08:49;99406.17;;;11.77;90.72
62946;BME280;52164;52.212;-1.010;2022-12-19T10:13:48;99375.36;;;11.80;90.29
62946;BME280;52164;52.212;-1.010;2022-12-19T10:17:25;99362.45;;;11.82;90.54
62946;BME280;52164;52.212;-1.010;2022-12-19T10:19:04;99361.13;;;11.85;90.34
62946;BME280;52164;52.212;-1.010;2022-12-19T10:21:34;99373.43;;;11.86;90.13
62946;BME280;52164;52.212;-1.010;2022-12-19T10:24:12;99385.20;;;11.88;90.32
62946;BME280;52164;52.212;-1.010;2022-12-19T10:26:43;99391.07;;;11.89;90.17
62946;BME280;52164;52.212;-1.010;2022-12-19T10:30:15;99375.27;;;11.91;90.09
62946;BME280;52164;52.212;-1.010;2022-12-19T10:31:58;99369.36;;;11.93;90.00
62946;BME280;52164;52.212;-1.010;2022-12-19T10:34:32;99374.73;;;11.94;89.95
62946;BME280;52164;52.212;-1.010;2022-12-19T10:37:00;99372.58;;;11.93;89.69
62946;BME280;52164;52.212;-1.010;2022-12-19T10:39:30;99371.70;;;11.93;89.83
62946;BME280;52164;52.212;-1.010;2022-12-19T10:42:01;99362.87;;;11.95;89.73
62946;BME280;52164;52.212;-1.010;2022-12-19T10:44:28;99361.05;;;11.97;89.59
62946;BME280;52164;52.212;-1.010;2022-12-19T10:46:55;99370.19;;;11.97;89.81
62946;BME280;52164;52.212;-1.010;2022-12-19T10:49:24;99365.91;;;11.96;89.47
62946;BME280;52164;52.212;-1.010;2022-12-19T10:52:05;99376.81;;;11.95;89.21
62946;BME280;52164;52.212;-1.010;2022-12-19T10:54:39;99386.17;;;11.92;89.35
62946;BME280;52164;52.212;-1.010;2022-12-19T10:57:23;99403.02;;;11.91;89.48
62946;BME280;52164;52.212;-1.010;2022-12-19T10:59:58;99394.45;;;11.90;89.58
62946;BME280;52164;52.212;-1.010;2022-12-19T11:02:35;99386.60;;;11.89;89.48
62946;BME280;52164;52.212;-1.010;2022-12-19T11:05:05;99393.25;;;11.87;89.67
62946;BME280;52164;52.212;-1.010;2022-12-19T11:07:47;99393.81;;;11.87;89.57
62946;BME280;52164;52.212;-1.010;2022-12-19T11:10:39;99383.63;;;11.86;89.36
62946;BME280;52164;52.212;-1.010;2022-12-19T11:13:38;99382.67;;;11.89;89.44
62946;BME280;52164;52.212;-1.010;2022-12-19T11:15:52;99392.30;;;11.89;89.38
62946;BME280;52164;52.212;-1.010;2022-12-19T11:18:17;99391.91;;;11.91;89.35
62946;BME280;52164;52.212;-1.010;2022-12-19T11:21:00;99380.84;;;11.90;89.25
62946;BME280;52164;52.212;-1.010;2022-12-19T11:23:26;99369.38;;;11.91;89.16
62946;BME280;52164;52.212;-1.010;2022-12-19T11:25:55;99368.98;;;11.92;89.02
62946;BME280;52164;52.212;-1.010;2022-12-19T11:28:22;99371.52;;;11.93;89.28
62946;BME280;52164;52.212;-1.010;2022-12-19T11:30:56;99374.90;;;11.92;89.08
62946;BME280;52164;52.212;-1.010;2022-12-19T11:33:23;99368.48;;;11.92;88.91
62946;BME280;52164;52.212;-1.010;2022-12-19T11:35:50;99359.19;;;11.93;88.87
62946;BME280;52164;52.212;-1.010;2022-12-19T11:38:17;99353.08;;;11.94;88.70
62946;BME280;52164;52.212;-1.010;2022-12-19T11:40:49;99351.97;;;11.95;88.84
62946;BME280;52164;52.212;-1.010;2022-12-19T11:43:19;99332.23;;;11.98;88.86
62946;BME280;52164;52.212;-1.010;2022-12-19T11:45:50;99329.83;;;12.02;88.58
62946;BME280;52164;52.212;-1.010;2022-12-19T11:48:23;99317.39;;;12.05;88.39
62946;BME280;52164;52.212;-1.010;2022-12-19T11:50:57;99319.12;;;12.08;88.40
62946;BME280;52164;52.212;-1.010;2022-12-19T11:53:26;99321.25;;;12.08;88.15
62946;BME280;52164;52.212;-1.010;2022-12-19T11:58:18;99313.25;;;12.07;88.12
62946;BME280;52164;52.212;-1.010;2022-12-19T12:05:54;99309.25;;;12.09;88.05
62946;BME280;52164;52.212;-1.010;2022-12-19T12:08:33;99297.72;;;12.13;88.03
62946;BME280;52164;52.212;-1.010;2022-12-19T12:11:52;99295.46;;;12.17;87.64
62946;BME280;52164;52.212;-1.010;2022-12-19T12:14:06;99289.52;;;12.19;87.63
62946;BME280;52164;52.212;-1.010;2022-12-19T12:16:36;99285.83;;;12.23;87.56
62946;BME280;52164;52.212;-1.010;2022-12-19T12:19:27;99290.36;;;12.27;87.47
62946;BME280;52164;52.212;-1.010;2022-12-19T12:24:43;99282.77;;;12.30;87.25
62946;BME280;52164;52.212;-1.010;2022-12-19T12:29:30;99286.55;;;12.22;87.21
62946;BME280;52164;52.212;-1.010;2022-12-19T12:32:02;99281.43;;;12.20;87.22
62946;BME280;52164;52.212;-1.010;2022-12-19T12:34:34;99276.06;;;12.20;87.10
62946;BME280;52164;52.212;-1.010;2022-12-19T12:39:38;99261.70;;;12.22;87.27
62946;BME280;52164;52.212;-1.010;2022-12-19T12:47:04;99262.85;;;12.19;87.50
62946;BME280;52164;52.212;-1.010;2022-12-19T12:49:32;99267.47;;;12.13;87.55
62946;BME280;52164;52.212;-1.010;2022-12-19T12:51:58;99263.63;;;12.10;87.58
62946;BME280;52164;52.212;-1.010;2022-12-19T12:54:25;99254.40;;;12.07;87.58
62946;BME280;52164;52.212;-1.010;2022-12-19T12:56:53;99263.92;;;12.06;87.64
62946;BME280;52164;52.212;-1.010;2022-12-19T12:59:20;99264.83;;;12.05;87.71
62946;BME280;52164;52.212;-1.010;2022-12-19T13:01:48;99261.09;;;12.05;87.80
62946;BME280;52164;52.212;-1.010;2022-12-19T13:06:41;99256.58;;;11.99;87.61
62946;BME280;52164;52.212;-1.010;2022-12-19T13:09:26;99258.80;;;11.97;87.69
62946;BME280;52164;52.212;-1.010;2022-12-19T13:17:05;99270.48;;;11.93;87.80
62946;BME280;52164;52.212;-1.010;2022-12-19T13:19:31;99263.70;;;11.93;87.97
62946;BME280;52164;52.212;-1.010;2022-12-19T13:24:52;99257.90;;;11.97;87.79
62946;BME280;52164;52.212;-1.010;2022-12-19T13:30:15;99259.36;;;12.02;87.67
62946;BME280;52164;52.212;-1.010;2022-12-19T13:40:00;99247.79;;;12.07;87.55
62946;BME280;52164;52.212;-1.010;2022-12-19T13:42:26;99241.74;;;12.06;87.55
62946;BME280;52164;52.212;-1.010;2022-12-19T13:45:12;99239.27;;;12.05;87.50
62946;BME280;52164;52.212;-1.010;2022-12-19T13:47:40;99241.20;;;12.06;87.80
62946;BME280;52164;52.212;-1.010;2022-12-19T13:50:14;99247.84;;;12.05;87.74
62946;BME280;52164;52.212;-1.010;2022-12-19T13:52:46;99240.04;;;12.02;87.88
62946;BME280;52164;52.212;-1.010;2022-12-19T13:55:12;99239.95;;;11.99;87.80
62946;BME280;52164;52.212;-1.010;2022-12-19T13:57:38;99241.98;;;11.96;87.74
62946;BME280;52164;52.212;-1.010;2022-12-19T14:00:07;99235.92;;;11.96;88.07
62946;BME280;52164;52.212;-1.010;2022-12-19T14:02:33;99229.88;;;11.95;87.83
62946;BME280;52164;52.212;-1.010;2022-12-19T14:05:01;99245.42;;;11.94;88.08